Time;durP1;ratioP1;P1;durP2;ratioP2;P2;SDS_P1;SDS_P2;PMS_P1;PMS_P2;Temp;Humidity;BMP_temperature;BMP_pressure;BME280_temperature;BME280_humidity;BME280_pressure;Samples;Min_cycle;Max_cycle;Signal;HPM_P1;HPM_P2
2021/04/29 00:01:22;;;;;;;6.70;6.10;;;19.60;30.90;;;;;;5035409;28;20419;-72
2021/04/29 00:03:47;;;;;;;6.10;5.60;;;19.50;30.70;;;;;;5035138;28;20291;-72
2021/04/29 00:06:13;;;;;;;5.33;4.93;;;19.60;30.80;;;;;;5035255;28;20181;-73
2021/04/29 00:08:39;;;;;;;5.90;5.50;;;19.60;30.80;;;;;;5035241;28;20211;-72
2021/04/29 00:11:07;;;;;;;8.23;5.37;;;19.50;30.80;;;;;;5036744;28;20231;-72
2021/04/29 00:13:32;;;;;;;5.87;5.47;;;19.60;31.00;;;;;;5039228;28;20472;-72
2021/04/29 00:15:58;;;;;;;6.10;5.60;;;19.50;30.90;;;;;;5034846;28;20917;-72
2021/04/29 00:18:24;;;;;;;5.60;5.20;;;19.60;31.00;;;;;;5034718;28;20232;-72
2021/04/29 00:20:55;;;;;;;7.83;5.57;;;19.50;30.80;;;;;;5034901;28;20215;-72
2021/04/29 00:23:25;;;;;;;6.23;5.80;;;19.60;31.00;;;;;;5035117;28;20899;-73
2021/04/29 00:25:51;;;;;;;5.97;5.43;;;19.50;31.00;;;;;;5034288;28;20435;-72
2021/04/29 00:28:16;;;;;;;5.23;4.93;;;19.50;30.80;;;;;;5035049;28;20435;-72
2021/04/29 00:30:42;;;;;;;5.90;5.40;;;19.50;30.90;;;;;;5034831;28;20520;-72
2021/04/29 00:33:08;;;;;;;7.30;5.47;;;19.50;30.90;;;;;;5034614;28;20181;-72
2021/04/29 00:35:34;;;;;;;4.97;4.70;;;19.50;30.90;;;;;;5034453;28;20501;-72
2021/04/29 00:37:59;;;;;;;5.57;5.27;;;19.60;31.00;;;;;;5034701;28;20200;-72
2021/04/29 00:40:25;;;;;;;6.13;5.70;;;19.50;31.00;;;;;;5034344;28;20227;-72
2021/04/29 00:42:51;;;;;;;5.80;5.30;;;19.50;31.00;;;;;;5034663;28;20184;-71
2021/04/29 00:45:16;;;;;;;6.07;5.63;;;19.50;31.00;;;;;;5034367;28;20574;-72
2021/04/29 00:47:42;;;;;;;5.60;5.20;;;19.50;31.00;;;;;;5034302;28;20268;-72
2021/04/29 00:50:11;;;;;;;6.20;5.63;;;19.50;30.90;;;;;;5034243;28;20181;-72
2021/04/29 00:52:37;;;;;;;6.27;5.77;;;19.50;31.00;;;;;;5034548;28;20575;-72
2021/04/29 00:55:03;;;;;;;6.27;5.77;;;19.50;31.10;;;;;;5033985;28;20422;-72
2021/04/29 00:57:29;;;;;;;6.00;5.50;;;19.50;31.00;;;;;;5033457;28;20431;-72
2021/04/29 00:59:56;;;;;;;5.50;5.10;;;19.50;31.00;;;;;;5034338;28;21157;-72
2021/04/29 01:02:23;;;;;;;5.23;4.93;;;19.50;31.00;;;;;;5034106;28;20182;-72
2021/04/29 01:05:06;;;;;;;5.97;5.40;;;19.50;31.00;;;;;;5034208;28;20407;-72
2021/04/29 01:07:40;;;;;;;5.90;5.60;;;19.50;31.00;;;;;;5034214;28;20514;-71
2021/04/29 01:10:12;;;;;;;6.17;5.73;;;19.50;31.10;;;;;;5033765;28;20469;-72
2021/04/29 01:12:46;;;;;;;5.30;4.97;;;19.50;31.10;;;;;;5034173;28;20975;-72
2021/04/29 01:15:14;;;;;;;5.37;5.07;;;19.50;31.00;;;;;;5033478;28;20431;-72
2021/04/29 01:17:43;;;;;;;6.13;5.63;;;19.50;31.10;;;;;;5033773;28;20424;-72
2021/04/29 01:20:44;;;;;;;6.17;5.77;;;19.50;31.10;;;;;;5033946;28;20604;-72
2021/04/29 01:23:28;;;;;;;5.73;5.17;;;19.50;31.10;;;;;;5040590;28;20517;-72
2021/04/29 01:25:59;;;;;;;6.77;6.00;;;19.50;31.10;;;;;;5033469;28;20400;-72
2021/04/29 01:28:27;;;;;;;5.30;4.90;;;19.50;31.10;;;;;;5033766;28;20451;-72
2021/04/29 01:30:54;;;;;;;5.80;5.40;;;19.50;31.10;;;;;;5032582;28;20462;-72
2021/04/29 01:33:20;;;;;;;5.00;4.70;;;19.50;31.10;;;;;;5033480;28;20407;-72
2021/04/29 01:35:46;;;;;;;5.80;5.30;;;19.50;31.20;;;;;;5033434;28;20921;-72
2021/04/29 01:38:12;;;;;;;5.13;4.83;;;19.50;31.30;;;;;;5033526;28;20431;-72
2021/04/29 01:40:38;;;;;;;5.70;5.30;;;19.50;31.20;;;;;;5033328;28;20190;-72
2021/04/29 01:43:06;;;;;;;5.20;4.90;;;19.50;31.20;;;;;;5032291;28;20415;-70
2021/04/29 01:45:32;;;;;;;7.23;5.30;;;19.50;31.20;;;;;;5033272;28;20558;-72
2021/04/29 01:47:58;;;;;;;5.20;4.90;;;19.50;31.20;;;;;;5033121;28;20514;-72
2021/04/29 01:50:24;;;;;;;5.80;5.40;;;19.50;31.30;;;;;;5033082;28;20180;-72
2021/04/29 01:52:50;;;;;;;5.50;5.20;;;19.50;31.20;;;;;;5033390;28;20204;-72
2021/04/29 01:55:16;;;;;;;4.80;4.50;;;19.40;31.10;;;;;;5031629;28;20181;-71
2021/04/29 01:57:42;;;;;;;5.13;4.90;;;19.50;31.30;;;;;;5033185;28;20431;-72
2021/04/29 02:00:09;;;;;;;5.30;5.00;;;19.40;31.10;;;;;;5033254;28;20898;-71
2021/04/29 02:02:35;;;;;;;5.33;4.93;;;19.40;31.20;;;;;;5032962;28;20633;-72
2021/04/29 02:05:01;;;;;;;6.07;5.67;;;19.40;31.20;;;;;;5033171;28;20486;-72
2021/04/29 02:07:26;;;;;;;4.73;4.53;;;19.50;31.30;;;;;;5036881;28;20243;-72
2021/04/29 02:09:52;;;;;;;5.17;4.77;;;19.50;31.20;;;;;;5037253;28;20238;-71
2021/04/29 02:12:17;;;;;;;5.77;5.17;;;19.50;31.30;;;;;;5034591;28;20201;-72
2021/04/29 02:14:48;;;;;;;5.40;5.03;;;19.50;31.30;;;;;;5038050;28;20746;-72
2021/04/29 02:17:24;;;;;;;4.90;4.60;;;19.50;31.30;;;;;;5032402;28;20200;-72
2021/04/29 02:19:51;;;;;;;5.30;4.90;;;19.50;31.40;;;;;;5032844;28;20445;-72
2021/04/29 02:22:20;;;;;;;4.70;4.40;;;19.50;31.30;;;;;;5032769;28;20419;-72
2021/04/29 02:24:47;;;;;;;5.43;5.13;;;19.50;31.30;;;;;;5032514;28;20423;-73
2021/04/29 02:27:13;;;;;;;4.83;4.53;;;19.40;31.20;;;;;;5032557;28;21963;-72
2021/04/29 02:29:43;;;;;;;5.37;4.97;;;19.50;31.30;;;;;;5046524;28;20415;-73
2021/04/29 02:32:09;;;;;;;4.90;4.50;;;19.40;31.30;;;;;;5032093;28;21131;-72
2021/04/29 02:34:35;;;;;;;5.43;5.10;;;19.40;31.30;;;;;;5037585;28;20430;-72
2021/04/29 02:37:01;;;;;;;4.83;4.47;;;19.50;31.40;;;;;;5038823;28;20427;-72
2021/04/29 02:39:30;;;;;;;5.43;5.13;;;19.40;31.40;;;;;;5038681;28;20967;-71
2021/04/29 02:41:55;;;;;;;4.63;4.43;;;19.50;31.50;;;;;;5040550;28;20314;-72
2021/04/29 02:44:21;;;;;;;4.77;4.47;;;19.50;31.50;;;;;;5034916;28;20906;-72
2021/04/29 02:46:47;;;;;;;5.00;4.70;;;19.40;31.30;;;;;;5031745;28;20200;-73
2021/04/29 02:49:12;;;;;;;5.17;4.87;;;19.40;31.30;;;;;;5032219;28;20797;-73
2021/04/29 02:51:39;;;;;;;5.00;4.60;;;19.50;31.50;;;;;;5032164;28;20223;-72
2021/04/29 02:54:08;;;;;;;6.13;4.30;;;19.40;31.40;;;;;;5031985;28;20164;-72
2021/04/29 02:56:39;;;;;;;4.93;4.63;;;19.50;31.60;;;;;;5032067;28;20558;-72
2021/04/29 02:59:04;;;;;;;5.67;5.27;;;19.50;31.50;;;;;;5032180;28;20777;-72
2021/04/29 03:01:32;;;;;;;5.30;5.00;;;19.50;31.50;;;;;;5031638;28;20423;-72
2021/04/29 03:03:57;;;;;;;4.90;4.60;;;19.50;31.60;;;;;;5032123;28;20172;-72
2021/04/29 03:06:23;;;;;;;4.83;4.63;;;19.40;31.40;;;;;;5031935;28;20418;-72
2021/04/29 03:08:50;;;;;;;4.57;4.27;;;19.40;31.40;;;;;;5031784;28;20682;-72
2021/04/29 03:11:16;;;;;;;4.33;4.13;;;19.40;31.50;;;;;;5031953;28;20276;-72
2021/04/29 03:13:42;;;;;;;4.90;4.60;;;19.40;31.40;;;;;;5031820;28;20502;-72
2021/04/29 03:16:07;;;;;;;4.80;4.50;;;19.40;31.50;;;;;;5031309;28;20172;-72
2021/04/29 03:18:33;;;;;;;4.63;4.37;;;19.40;31.50;;;;;;5030904;28;20602;-72
2021/04/29 03:20:58;;;;;;;4.70;4.37;;;19.40;31.50;;;;;;5032004;28;20674;-72
2021/04/29 03:23:24;;;;;;;5.17;4.87;;;19.40;31.50;;;;;;5033267;28;20200;-72
2021/04/29 03:25:49;;;;;;;4.73;4.43;;;19.40;31.50;;;;;;5037669;28;20177;-72
2021/04/29 03:28:15;;;;;;;4.90;4.50;;;19.40;31.60;;;;;;5033713;28;20224;-72
2021/04/29 03:30:41;;;;;;;4.40;4.20;;;19.40;31.50;;;;;;5031416;28;20564;-72
2021/04/29 03:33:06;;;;;;;4.47;4.07;;;19.40;31.60;;;;;;5032046;28;20173;-72
2021/04/29 03:35:32;;;;;;;4.23;4.03;;;19.40;31.50;;;;;;5031478;28;20639;-72
2021/04/29 03:37:58;;;;;;;5.27;4.17;;;19.40;31.50;;;;;;5031327;28;20192;-72
2021/04/29 03:40:24;;;;;;;5.20;4.70;;;19.40;31.60;;;;;;5031668;28;20447;-72
2021/04/29 03:42:49;;;;;;;4.13;3.93;;;19.40;31.50;;;;;;5031687;28;20180;-72
2021/04/29 03:45:15;;;;;;;4.40;4.10;;;19.40;31.50;;;;;;5031055;28;20215;-72
2021/04/29 03:47:41;;;;;;;4.33;4.03;;;19.40;31.40;;;;;;5031566;28;20690;-72
2021/04/29 03:50:07;;;;;;;4.13;3.93;;;19.50;31.50;;;;;;5031693;28;20698;-72
2021/04/29 03:52:32;;;;;;;5.33;4.27;;;19.50;31.20;;;;;;5031207;28;20683;-72
2021/04/29 03:54:58;;;;;;;4.67;4.37;;;19.60;31.50;;;;;;5031531;28;20910;-72
2021/04/29 03:57:23;;;;;;;4.10;3.90;;;19.60;31.50;;;;;;5031222;28;20200;-71
2021/04/29 03:59:49;;;;;;;4.57;4.33;;;19.60;31.40;;;;;;5029953;28;20543;-72
2021/04/29 04:02:14;;;;;;;4.43;4.13;;;19.70;31.40;;;;;;5031552;28;20542;-72
2021/04/29 04:04:40;;;;;;;4.60;4.40;;;19.80;31.40;;;;;;5030147;28;20176;-72
2021/04/29 04:07:06;;;;;;;4.17;3.97;;;19.80;31.30;;;;;;5031032;28;20184;-71
2021/04/29 04:09:31;;;;;;;4.27;3.97;;;19.80;31.30;;;;;;5031529;28;20215;-74
2021/04/29 04:11:57;;;;;;;4.30;4.10;;;19.80;31.10;;;;;;5031277;28;20205;-73
2021/04/29 04:14:22;;;;;;;5.70;5.07;;;19.80;31.00;;;;;;5031091;28;20193;-72
2021/04/29 04:16:48;;;;;;;4.40;4.07;;;19.80;31.20;;;;;;5031034;28;20169;-72
2021/04/29 04:19:13;;;;;;;4.20;3.90;;;19.70;31.10;;;;;;5031208;28;20192;-73
2021/04/29 04:21:39;;;;;;;4.63;4.37;;;19.70;31.10;;;;;;5031371;28;20175;-73
2021/04/29 04:24:05;;;;;;;5.63;4.30;;;19.70;32.00;;;;;;5031047;28;20239;-72
2021/04/29 04:26:30;;;;;;;4.80;4.50;;;19.70;31.30;;;;;;5030950;28;20638;-73
2021/04/29 04:28:56;;;;;;;5.07;4.77;;;19.70;31.30;;;;;;5031158;28;20204;-73
2021/04/29 04:31:21;;;;;;;4.30;4.00;;;19.60;31.30;;;;;;5029800;28;20299;-73
2021/04/29 04:33:47;;;;;;;4.53;4.23;;;19.60;31.30;;;;;;5033835;28;20518;-73
2021/04/29 04:36:12;;;;;;;4.43;4.13;;;19.60;31.30;;;;;;5033443;28;20180;-72
2021/04/29 04:38:38;;;;;;;4.93;4.60;;;19.60;31.40;;;;;;5034424;28;20196;-69
2021/04/29 04:41:04;;;;;;;4.47;4.07;;;19.60;31.40;;;;;;5034587;28;20176;-70
2021/04/29 04:43:29;;;;;;;4.13;3.73;;;19.60;31.60;;;;;;5034586;28;20173;-70
2021/04/29 04:45:55;;;;;;;4.47;4.17;;;19.70;31.60;;;;;;5034154;28;20263;-70
2021/04/29 04:48:21;;;;;;;4.57;4.17;;;19.70;31.60;;;;;;5034511;28;20232;-71
2021/04/29 04:50:46;;;;;;;4.70;4.30;;;19.80;32.00;;;;;;5034354;28;20254;-71
2021/04/29 04:53:12;;;;;;;5.00;3.67;;;19.80;32.00;;;;;;5034195;28;20415;-71
2021/04/29 04:55:43;;;;;;;4.00;3.63;;;19.80;31.90;;;;;;5034140;28;20187;-71
2021/04/29 04:58:09;;;;;;;4.70;4.40;;;19.80;31.90;;;;;;5034312;28;20235;-70
2021/04/29 05:00:34;;;;;;;6.77;4.43;;;19.90;31.90;;;;;;5032753;28;20443;-70
2021/04/29 05:03:00;;;;;;;6.40;6.10;;;19.90;32.00;;;;;;5034312;28;20169;-70
2021/04/29 05:05:25;;;;;;;7.57;6.63;;;19.90;32.10;;;;;;5034010;28;20173;-70
2021/04/29 05:07:51;;;;;;;10.77;9.97;;;19.90;32.30;;;;;;5033965;28;20567;-70
2021/04/29 05:10:17;;;;;;;9.60;9.00;;;19.90;31.70;;;;;;5034032;28;20251;-69
2021/04/29 05:12:42;;;;;;;9.37;8.63;;;19.90;31.70;;;;;;5034000;28;20177;-70
2021/04/29 05:15:08;;;;;;;9.40;8.73;;;19.90;31.80;;;;;;5033372;28;20327;-70
2021/04/29 05:17:34;;;;;;;9.90;9.20;;;19.90;31.60;;;;;;5033893;28;20201;-70
2021/04/29 05:19:59;;;;;;;9.03;8.63;;;19.90;32.30;;;;;;5034066;28;20789;-71
2021/04/29 05:22:25;;;;;;;10.07;9.07;;;19.90;31.50;;;;;;5033782;28;20177;-70
2021/04/29 05:24:51;;;;;;;9.20;8.70;;;19.90;31.50;;;;;;5033789;28;20552;-71
2021/04/29 05:27:16;;;;;;;9.50;9.00;;;19.90;31.50;;;;;;5033463;28;20200;-70
2021/04/29 05:29:42;;;;;;;10.10;9.10;;;19.90;32.00;;;;;;5033533;28;20239;-71
2021/04/29 05:32:07;;;;;;;10.53;9.63;;;19.90;31.90;;;;;;5033540;28;20213;-70
2021/04/29 05:34:33;;;;;;;10.13;9.43;;;19.90;31.70;;;;;;5033621;28;20670;-70
2021/04/29 05:36:59;;;;;;;10.07;9.23;;;20.00;32.20;;;;;;5033190;28;20173;-70
2021/04/29 05:39:24;;;;;;;9.53;8.73;;;20.00;31.90;;;;;;5032348;28;20176;-71
2021/04/29 05:41:50;;;;;;;9.30;8.70;;;19.90;32.50;;;;;;5033484;28;20187;-71
2021/04/29 05:44:15;;;;;;;9.60;8.87;;;20.00;33.00;;;;;;5032927;28;20271;-71
2021/04/29 05:46:42;;;;;;;10.60;9.80;;;20.00;33.00;;;;;;5033246;28;20181;-69
2021/04/29 05:49:08;;;;;;;14.27;10.17;;;20.00;32.50;;;;;;5032277;28;20188;-70
2021/04/29 05:51:33;;;;;;;13.30;10.13;;;20.00;32.20;;;;;;5032887;28;20972;-70
2021/04/29 05:53:59;;;;;;;11.87;9.63;;;20.00;32.80;;;;;;5032027;28;20215;-70
2021/04/29 05:56:24;;;;;;;11.50;8.97;;;20.00;32.90;;;;;;5032993;28;20173;-70
2021/04/29 05:58:50;;;;;;;8.80;8.10;;;20.00;32.00;;;;;;5032910;28;20193;-70
2021/04/29 06:01:15;;;;;;;9.50;8.60;;;20.00;31.90;;;;;;5033181;28;20173;-71
2021/04/29 06:03:41;;;;;;;9.17;8.27;;;20.00;32.00;;;;;;5033261;28;20579;-74
2021/04/29 06:06:06;;;;;;;9.67;8.83;;;20.00;32.00;;;;;;5032648;28;20535;-74
2021/04/29 06:08:32;;;;;;;8.70;8.00;;;20.00;32.10;;;;;;5033195;28;20250;-74
2021/04/29 06:10:58;;;;;;;7.93;7.23;;;19.90;32.20;;;;;;5032758;28;20231;-71
2021/04/29 06:13:23;;;;;;;7.90;7.20;;;19.90;32.30;;;;;;5015053;28;20185;-72
2021/04/29 06:15:49;;;;;;;8.17;7.50;;;19.90;32.10;;;;;;5031350;28;20192;-72
2021/04/29 06:18:14;;;;;;;7.50;6.90;;;19.90;31.70;;;;;;5032864;28;20243;-73
2021/04/29 06:20:40;;;;;;;7.30;6.57;;;19.90;31.70;;;;;;5031338;28;20181;-73
2021/04/29 06:23:07;;;;;;;7.50;6.80;;;19.90;31.70;;;;;;5033124;28;20173;-74
2021/04/29 06:25:33;;;;;;;6.77;6.20;;;20.00;31.90;;;;;;5034504;28;20458;-73
2021/04/29 06:27:58;;;;;;;7.20;6.70;;;20.00;32.10;;;;;;5032583;28;21110;-74
2021/04/29 06:30:24;;;;;;;6.77;6.10;;;20.00;32.20;;;;;;5036136;28;20191;-73
2021/04/29 06:32:49;;;;;;;5.80;5.43;;;20.00;32.30;;;;;;5037839;28;20172;-71
2021/04/29 06:35:15;;;;;;;7.87;6.13;;;20.10;32.50;;;;;;5032007;28;20172;-72
2021/04/29 06:37:40;;;;;;;6.57;5.90;;;20.00;32.40;;;;;;5032718;28;20218;-72
2021/04/29 06:40:06;;;;;;;6.67;6.17;;;20.10;32.40;;;;;;5032653;28;20169;-72
2021/04/29 06:42:32;;;;;;;9.43;6.13;;;20.10;32.20;;;;;;5032008;28;20188;-71
2021/04/29 06:44:58;;;;;;;7.03;6.33;;;20.10;32.20;;;;;;5035198;28;20181;-71
2021/04/29 06:47:27;;;;;;;6.40;5.90;;;20.10;32.30;;;;;;5034956;28;20205;-73
2021/04/29 06:49:53;;;;;;;6.47;5.87;;;20.10;32.30;;;;;;5031981;28;20422;-71
2021/04/29 06:52:20;;;;;;;12.60;7.20;;;20.10;32.20;;;;;;5032227;28;20973;-72
2021/04/29 06:54:46;;;;;;;10.40;6.37;;;20.10;32.10;;;;;;5032702;28;20426;-72
2021/04/29 06:57:12;;;;;;;7.23;6.60;;;20.10;32.20;;;;;;5030763;28;20416;-71
2021/04/29 06:59:37;;;;;;;6.30;5.70;;;20.10;32.10;;;;;;5031944;28;20431;-72
2021/04/29 07:02:03;;;;;;;5.87;5.37;;;20.10;32.00;;;;;;5030770;28;20177;-72
2021/04/29 07:04:28;;;;;;;5.93;5.53;;;20.10;32.00;;;;;;5032414;28;20179;-73
2021/04/29 07:06:54;;;;;;;8.47;6.47;;;20.10;32.20;;;;;;5031813;28;20177;-72
2021/04/29 07:09:19;;;;;;;5.57;5.20;;;20.10;32.20;;;;;;5032675;28;20579;-73
2021/04/29 07:11:45;;;;;;;6.57;5.37;;;20.10;32.10;;;;;;5034191;28;20196;-72
2021/04/29 07:14:11;;;;;;;9.87;6.30;;;20.10;32.10;;;;;;5031843;28;20239;-72
2021/04/29 07:16:36;;;;;;;6.20;5.60;;;20.10;32.10;;;;;;5031996;28;20180;-71
2021/04/29 07:19:02;;;;;;;6.17;5.67;;;20.10;32.00;;;;;;5031957;28;20258;-71
2021/04/29 07:21:27;;;;;;;5.80;5.40;;;20.10;32.00;;;;;;5038218;28;20181;-71
2021/04/29 07:23:53;;;;;;;6.07;5.53;;;20.10;31.90;;;;;;5034238;28;20238;-71
2021/04/29 07:26:19;;;;;;;7.97;6.47;;;20.10;31.90;;;;;;5032164;28;20192;-72
2021/04/29 07:28:45;;;;;;;6.93;5.80;;;20.10;31.90;;;;;;5034658;28;20200;-71
2021/04/29 07:31:11;;;;;;;6.10;5.67;;;20.10;31.90;;;;;;5032183;28;20192;-71
2021/04/29 07:33:37;;;;;;;10.20;5.80;;;20.10;31.80;;;;;;5032367;28;20403;-71
2021/04/29 07:36:03;;;;;;;6.03;5.63;;;20.10;31.80;;;;;;5030927;28;20523;-72
2021/04/29 07:38:28;;;;;;;6.87;6.27;;;20.10;31.90;;;;;;5032215;28;20279;-73
2021/04/29 07:40:54;;;;;;;6.00;5.50;;;20.10;32.30;;;;;;5031603;28;21040;-72
2021/04/29 07:43:20;;;;;;;5.90;5.60;;;20.10;31.80;;;;;;5031513;28;20199;-72
2021/04/29 07:45:46;;;;;;;6.47;5.80;;;20.10;31.70;;;;;;5031992;28;20441;-72
2021/04/29 07:48:11;;;;;;;6.83;5.97;;;20.10;31.70;;;;;;5038364;28;20203;-71
2021/04/29 07:50:37;;;;;;;5.70;5.20;;;20.10;32.60;;;;;;5032277;28;20181;-72
2021/04/29 07:53:02;;;;;;;5.73;5.30;;;20.10;31.70;;;;;;5031724;28;20196;-71
2021/04/29 07:55:28;;;;;;;6.10;5.60;;;20.10;31.70;;;;;;5031282;28;20207;-72
2021/04/29 07:57:54;;;;;;;6.93;5.00;;;20.10;31.70;;;;;;5031588;28;20192;-72
2021/04/29 08:00:20;;;;;;;5.50;5.17;;;20.10;31.80;;;;;;5033909;28;20185;-70
2021/04/29 08:02:46;;;;;;;6.63;6.03;;;20.10;31.90;;;;;;5032677;28;20185;-71
2021/04/29 08:05:12;;;;;;;5.70;5.30;;;20.10;32.00;;;;;;5031776;28;20481;-71
2021/04/29 08:07:38;;;;;;;5.87;5.57;;;20.10;32.30;;;;;;5034939;28;20283;-71
2021/04/29 08:10:06;;;;;;;6.17;5.50;;;20.10;32.70;;;;;;5036444;28;20421;-71
2021/04/29 08:12:31;;;;;;;6.50;6.00;;;20.20;32.90;;;;;;5037212;28;20550;-71
2021/04/29 08:14:59;;;;;;;5.70;5.40;;;20.20;33.00;;;;;;5040137;28;20460;-71
2021/04/29 08:17:25;;;;;;;5.80;5.40;;;20.20;33.00;;;;;;5036112;28;20428;-71
2021/04/29 08:19:53;;;;;;;6.47;6.07;;;20.20;33.10;;;;;;5037788;28;20496;-71
2021/04/29 08:22:18;;;;;;;6.23;5.80;;;20.20;33.10;;;;;;5035415;28;20415;-71
2021/04/29 08:24:44;;;;;;;6.03;5.40;;;20.20;33.10;;;;;;5035578;28;20415;-71
2021/04/29 08:27:09;;;;;;;5.90;5.60;;;20.20;33.30;;;;;;5036630;28;20180;-72
2021/04/29 08:29:35;;;;;;;5.90;5.60;;;20.20;33.20;;;;;;5037219;28;20176;-71
2021/04/29 08:32:01;;;;;;;7.30;5.37;;;20.20;33.20;;;;;;5039525;28;20258;-73
2021/04/29 08:34:26;;;;;;;6.10;5.70;;;20.30;32.70;;;;;;5038838;28;20438;-72
2021/04/29 08:36:52;;;;;;;6.10;5.53;;;20.30;33.30;;;;;;5045217;28;20181;-71
2021/04/29 08:39:17;;;;;;;10.10;5.43;;;20.30;33.40;;;;;;5045651;28;20197;-75
2021/04/29 08:41:44;;;;;;;6.07;5.57;;;20.30;32.90;;;;;;5036662;28;20221;-74
2021/04/29 08:44:09;;;;;;;5.07;4.57;;;20.20;32.80;;;;;;5033263;28;20211;-74
2021/04/29 08:46:35;;;;;;;5.93;5.57;;;20.20;33.70;;;;;;5034491;28;20460;-74
2021/04/29 08:49:01;;;;;;;5.43;4.93;;;20.10;33.10;;;;;;5034127;28;20209;-74
2021/04/29 08:51:27;;;;;;;5.10;4.80;;;20.00;33.30;;;;;;5034198;28;20200;-73
2021/04/29 08:53:54;;;;;;;6.00;5.60;;;20.00;33.30;;;;;;5034482;28;20179;-74
2021/04/29 08:56:22;;;;;;;5.50;5.00;;;20.00;33.30;;;;;;5033858;28;20426;-75
2021/04/29 08:58:53;;;;;;;5.47;5.17;;;19.90;33.20;;;;;;5034353;28;20442;-74
2021/04/29 09:01:19;;;;;;;5.43;5.00;;;19.90;33.30;;;;;;5035568;28;20502;-76
2021/04/29 09:03:45;;;;;;;5.50;4.97;;;19.80;33.30;;;;;;5039684;28;20466;-75
2021/04/29 09:06:11;;;;;;;5.00;4.70;;;19.90;33.30;;;;;;5034317;28;20188;-75
2021/04/29 09:08:37;;;;;;;5.20;4.90;;;19.80;33.20;;;;;;5047342;28;20211;-74
2021/04/29 09:11:11;;;;;;;5.30;4.90;;;19.80;33.20;;;;;;5036934;28;20517;-75
2021/04/29 09:13:37;;;;;;;5.47;5.07;;;19.80;33.30;;;;;;5033956;28;20469;-74
2021/04/29 09:16:11;;;;;;;5.50;5.00;;;19.80;33.20;;;;;;5033791;28;20428;-75
2021/04/29 09:18:40;;;;;;;6.20;5.80;;;19.80;33.20;;;;;;5029236;28;20427;-74
2021/04/29 09:21:14;;;;;;;5.10;4.70;;;19.70;33.20;;;;;;5034013;28;20422;-75
2021/04/29 09:23:47;;;;;;;6.70;6.07;;;19.70;33.10;;;;;;5033905;28;20506;-74
2021/04/29 09:26:15;;;;;;;5.47;5.17;;;19.70;33.10;;;;;;5033346;28;20422;-74
2021/04/29 09:28:45;;;;;;;5.90;5.50;;;19.70;33.10;;;;;;5033806;28;20930;-74
2021/04/29 09:31:19;;;;;;;5.57;5.27;;;19.70;33.10;;;;;;5033685;28;20459;-73
2021/04/29 09:33:49;;;;;;;6.23;5.70;;;19.70;33.10;;;;;;5033612;28;20407;-73
2021/04/29 09:36:28;;;;;;;5.20;4.80;;;19.70;33.10;;;;;;5032257;28;20473;-71
2021/04/29 09:39:08;;;;;;;5.60;5.20;;;19.60;33.00;;;;;;5032477;28;20442;-73
2021/04/29 09:41:41;;;;;;;5.20;4.90;;;19.60;33.00;;;;;;5033009;28;20479;-73
2021/04/29 09:44:12;;;;;;;5.03;4.70;;;19.60;33.00;;;;;;5033665;28;20418;-72
2021/04/29 09:46:41;;;;;;;5.40;5.10;;;19.60;33.00;;;;;;5033437;28;20991;-72
2021/04/29 09:49:30;;;;;;;4.77;4.37;;;19.60;33.00;;;;;;5031337;28;20439;-73
2021/04/29 09:51:58;;;;;;;4.90;4.60;;;19.60;33.00;;;;;;5033204;28;20461;-73
2021/04/29 09:54:39;;;;;;;5.63;5.30;;;19.60;32.90;;;;;;5032024;28;20415;-73
2021/04/29 09:57:07;;;;;;;4.80;4.50;;;19.60;33.00;;;;;;5032861;28;20411;-73
2021/04/29 09:59:46;;;;;;;5.10;4.77;;;19.50;32.90;;;;;;5032782;28;20411;-72
2021/04/29 10:02:13;;;;;;;5.23;4.93;;;19.50;32.80;;;;;;5032732;28;20905;-73
2021/04/29 10:04:40;;;;;;;5.23;4.93;;;19.60;32.90;;;;;;5032530;28;20506;-73
2021/04/29 10:07:07;;;;;;;5.20;4.73;;;19.50;32.80;;;;;;5032791;28;20422;-72
2021/04/29 10:09:34;;;;;;;4.90;4.70;;;19.50;32.80;;;;;;5032857;28;20411;-73
2021/04/29 10:12:11;;;;;;;5.30;4.90;;;19.50;32.80;;;;;;5032808;28;20463;-72
2021/04/29 10:14:40;;;;;;;5.23;4.77;;;19.50;32.80;;;;;;5032797;28;20427;-72
2021/04/29 10:17:08;;;;;;;4.60;4.30;;;19.50;32.80;;;;;;5032229;28;20427;-74
2021/04/29 10:20:01;;;;;;;5.00;4.70;;;19.50;32.80;;;;;;5032892;28;21068;-73
2021/04/29 10:22:27;;;;;;;4.97;4.60;;;19.50;32.80;;;;;;5033257;28;20427;-72
2021/04/29 10:24:53;;;;;;;4.80;4.50;;;19.50;32.80;;;;;;5032468;28;20415;-74
2021/04/29 10:27:24;;;;;;;5.40;5.10;;;19.50;32.80;;;;;;5032276;28;20446;-73
2021/04/29 10:30:04;;;;;;;4.47;4.10;;;19.50;32.80;;;;;;5031896;28;20420;-73
2021/04/29 10:32:35;;;;;;;4.60;4.30;;;19.50;32.80;;;;;;5032271;28;20463;-73
2021/04/29 10:35:15;;;;;;;5.47;5.07;;;19.50;32.80;;;;;;5032510;28;20765;-74
2021/04/29 10:37:56;;;;;;;5.20;4.90;;;19.50;33.50;;;;;;5032210;28;20427;-72
2021/04/29 10:40:37;;;;;;;5.33;5.03;;;19.50;32.80;;;;;;5032391;28;20426;-74
2021/04/29 10:43:03;;;;;;;4.90;4.60;;;19.40;32.70;;;;;;5031348;28;20427;-72
2021/04/29 10:45:30;;;;;;;4.40;4.13;;;19.50;32.80;;;;;;5031999;28;20895;-72
2021/04/29 10:48:11;;;;;;;5.13;4.73;;;19.40;32.70;;;;;;5032169;28;20423;-72
2021/04/29 10:50:42;;;;;;;5.30;4.90;;;19.40;32.70;;;;;;5032353;28;20415;-73
2021/04/29 10:53:08;;;;;;;4.47;4.27;;;19.40;32.70;;;;;;5031136;28;20775;-72
2021/04/29 10:55:37;;;;;;;5.20;4.90;;;19.40;32.70;;;;;;5031881;28;20977;-72
2021/04/29 10:58:07;;;;;;;5.00;4.80;;;19.50;32.80;;;;;;5032231;28;20415;-72
2021/04/29 11:00:52;;;;;;;5.20;4.90;;;19.40;32.70;;;;;;5032005;28;20403;-72
2021/04/29 11:03:28;;;;;;;4.73;4.53;;;19.40;32.60;;;;;;5031801;28;20459;-73
2021/04/29 11:06:04;;;;;;;5.30;5.00;;;19.40;32.60;;;;;;5031830;28;20502;-73
2021/04/29 11:08:35;;;;;;;5.10;4.87;;;19.40;32.60;;;;;;5030885;28;20444;-73
2021/04/29 11:11:01;;;;;;;5.13;4.90;;;19.40;32.60;;;;;;5031596;28;20473;-73
2021/04/29 11:13:27;;;;;;;4.77;4.40;;;19.40;32.60;;;;;;5031863;28;20969;-74
2021/04/29 11:15:58;;;;;;;4.80;4.60;;;19.40;32.50;;;;;;5031662;28;20431;-73
2021/04/29 11:18:23;;;;;;;4.97;4.67;;;19.40;32.50;;;;;;5031941;28;20427;-72
2021/04/29 11:20:57;;;;;;;5.17;4.87;;;19.40;32.50;;;;;;5031967;28;20422;-73
2021/04/29 11:23:28;;;;;;;5.13;4.83;;;19.40;32.50;;;;;;5031790;28;20175;-74
2021/04/29 11:26:17;;;;;;;5.07;4.77;;;19.40;32.40;;;;;;5031499;28;20498;-74
2021/04/29 11:28:44;;;;;;;4.60;4.40;;;19.40;32.40;;;;;;5031413;28;21126;-74
2021/04/29 11:31:10;;;;;;;4.90;4.60;;;19.40;32.50;;;;;;5032082;28;20459;-72
2021/04/29 11:33:38;;;;;;;4.33;4.13;;;19.30;32.30;;;;;;5033212;28;20407;-74
2021/04/29 11:36:27;;;;;;;5.00;4.70;;;19.30;32.40;;;;;;5032155;28;20407;-73
2021/04/29 11:39:06;;;;;;;4.77;4.57;;;19.30;32.40;;;;;;5031741;28;20501;-74
2021/04/29 11:41:32;;;;;;;4.57;4.37;;;19.40;32.50;;;;;;5032627;28;20502;-74
2021/04/29 11:44:08;;;;;;;5.83;5.43;;;19.40;32.40;;;;;;5036386;28;20439;-74
2021/04/29 11:46:35;;;;;;;4.43;4.23;;;19.50;32.40;;;;;;5034160;28;20909;-73
2021/04/29 11:49:06;;;;;;;4.23;4.03;;;19.50;32.30;;;;;;5035631;28;20431;-74
2021/04/29 11:51:34;;;;;;;4.53;4.27;;;19.50;32.20;;;;;;5035611;28;20490;-74
2021/04/29 11:54:06;;;;;;;4.80;4.40;;;19.50;32.10;;;;;;5035653;28;20465;-73
2021/04/29 11:56:42;;;;;;;4.67;4.37;;;19.50;32.10;;;;;;5034661;28;20423;-73
2021/04/29 11:59:08;;;;;;;4.93;4.53;;;19.50;32.10;;;;;;5035670;28;20446;-72
2021/04/29 12:01:38;;;;;;;4.50;4.30;;;19.50;32.10;;;;;;5034007;28;20434;-73
2021/04/29 12:04:22;;;;;;;4.30;4.10;;;19.50;32.20;;;;;;5034398;28;20473;-73
2021/04/29 12:06:52;;;;;;;4.40;4.20;;;19.50;32.20;;;;;;5035249;28;20453;-73
2021/04/29 12:09:20;;;;;;;4.73;4.47;;;19.40;32.00;;;;;;5034882;28;20530;-73
2021/04/29 12:11:46;;;;;;;4.83;4.53;;;19.50;32.20;;;;;;5035244;28;20502;-73
2021/04/29 12:14:26;;;;;;;4.80;4.43;;;19.50;32.10;;;;;;5035122;28;20419;-73
2021/04/29 12:16:59;;;;;;;5.20;4.90;;;19.50;32.10;;;;;;5033229;28;20425;-72
2021/04/29 12:19:32;;;;;;;4.20;4.00;;;19.40;32.10;;;;;;5035334;28;20472;-73
2021/04/29 12:21:59;;;;;;;4.70;4.40;;;19.50;32.20;;;;;;5034936;28;20426;-72
2021/04/29 12:24:28;;;;;;;4.57;4.37;;;19.40;32.10;;;;;;5034698;28;20902;-72
2021/04/29 12:26:54;;;;;;;5.10;4.70;;;19.50;32.20;;;;;;5033684;28;20423;-73
2021/04/29 12:29:21;;;;;;;4.77;4.50;;;19.40;32.10;;;;;;5033551;28;20481;-73
2021/04/29 12:32:01;;;;;;;4.63;4.33;;;19.40;32.20;;;;;;5034496;28;20220;-74
2021/04/29 12:34:27;;;;;;;4.90;4.70;;;19.40;32.20;;;;;;5034685;28;20403;-73
2021/04/29 12:37:04;;;;;;;4.40;4.20;;;19.40;32.20;;;;;;5034819;28;20769;-72
2021/04/29 12:39:33;;;;;;;5.20;4.90;;;19.40;32.20;;;;;;5034478;28;20581;-73
2021/04/29 12:42:00;;;;;;;4.47;4.27;;;19.40;32.20;;;;;;5034437;28;20411;-74
2021/04/29 12:44:45;;;;;;;4.43;4.23;;;19.40;32.20;;;;;;5033466;28;20411;-73
2021/04/29 12:47:12;;;;;;;4.30;4.10;;;19.40;32.20;;;;;;5034103;28;20930;-72
2021/04/29 12:49:38;;;;;;;4.27;3.97;;;19.40;32.20;;;;;;5042933;28;20434;-73